Morrisvale, West Virginia
Current Conditions -  °F | °C
As of 11:20 AM on Tuesday 21 Oct 2014 (Local Time) from KCRW Reporting Station
Light Rain Light Rain  
Wind Chill: 53°   Ceiling: 600
Heat Index: 53°   Visibility: 3mi
Dew Point: 50°   Wind: 10mph
Humidity: 89%   Direction: 270°W
Pressure: 29.94"   Gusts: NA
Location:  38.0907°N, 81.9877°W
Report Text: KCRW 211520Z 27009KT 3SM -RA BR BKN006 OVC014 12/10 A2994 RMK AO2 P0000 T01170100
Loading
Personal Weather Stations






























Interactive Weather Map
Tropical Storm Tracking
New forecast layout! Learn more

10-Day Weather Forecast

Advertisements
Track Severe Weather on mobile